Time;durP1;ratioP1;P1;durP2;ratioP2;P2;SDS_P1;SDS_P2;PMS_P1;PMS_P2;Temp;Humidity;BMP_temperature;BMP_pressure;BME280_temperature;BME280_humidity;BME280_pressure;Samples;Min_cycle;Max_cycle;Signal;HPM_P1;HPM_P2
2021/08/14 00:01:27;;;;;;;5.40;3.80;;;18.40;74.10;;;;;;5054915;28;20036;-84
2021/08/14 00:03:53;;;;;;;6.45;4.43;;;18.40;74.30;;;;;;5055001;28;20059;-84
2021/08/14 00:06:19;;;;;;;6.97;4.40;;;18.30;74.50;;;;;;5037071;28;20029;-85
2021/08/14 00:08:45;;;;;;;5.07;3.40;;;18.30;74.60;;;;;;5055009;28;20025;-84
2021/08/14 00:11:12;;;;;;;5.63;3.97;;;18.30;74.70;;;;;;5055185;28;20029;-85
2021/08/14 00:13:37;;;;;;;6.43;4.20;;;18.30;75.00;;;;;;5038093;28;20032;-84
2021/08/14 00:16:03;;;;;;;7.47;4.53;;;18.30;75.00;;;;;;5036671;28;20049;-84
2021/08/14 00:18:29;;;;;;;7.85;4.28;;;18.20;75.00;;;;;;5036309;28;20055;-85
2021/08/14 00:20:55;;;;;;;6.75;4.22;;;18.20;75.10;;;;;;5054765;28;20031;-84
2021/08/14 00:23:21;;;;;;;7.30;4.53;;;18.20;75.50;;;;;;5037164;28;20057;-85
2021/08/14 00:25:46;;;;;;;6.80;4.57;;;18.10;75.50;;;;;;5037450;28;20119;-85
2021/08/14 00:28:12;;;;;;;7.95;5.25;;;18.10;75.80;;;;;;5054287;28;20060;-85
2021/08/14 00:30:38;;;;;;;6.93;4.80;;;18.00;75.60;;;;;;5054499;28;20063;-85
2021/08/14 00:33:03;;;;;;;7.20;4.63;;;18.00;75.60;;;;;;5036928;28;20024;-84
2021/08/14 00:35:29;;;;;;;6.75;4.75;;;18.00;75.70;;;;;;5036959;28;20029;-85
2021/08/14 00:37:55;;;;;;;7.97;4.80;;;17.90;75.80;;;;;;5036842;28;20037;-85
2021/08/14 00:40:21;;;;;;;8.68;4.78;;;17.90;75.90;;;;;;5054014;28;20025;-85
2021/08/14 00:42:46;;;;;;;7.68;5.05;;;17.80;76.20;;;;;;5054473;28;20154;-85
2021/08/14 00:45:12;;;;;;;7.80;5.07;;;17.90;76.30;;;;;;5054177;28;20029;-85
2021/08/14 00:47:42;;;;;;;7.38;4.95;;;17.90;76.30;;;;;;5035908;28;20021;-85
2021/08/14 00:50:10;;;;;;;9.07;4.78;;;17.90;76.50;;;;;;5037207;28;20036;-85
2021/08/14 00:52:36;;;;;;;8.77;5.30;;;18.00;76.30;;;;;;5036350;28;20033;-85
2021/08/14 00:55:01;;;;;;;8.25;4.70;;;18.00;76.10;;;;;;5036613;28;20029;-85
2021/08/14 00:57:27;;;;;;;7.32;4.47;;;18.00;76.00;;;;;;5036444;28;20119;-85
2021/08/14 00:59:53;;;;;;;7.50;5.05;;;17.90;76.10;;;;;;5036098;28;20025;-86
2021/08/14 01:02:20;;;;;;;8.27;4.80;;;17.90;76.80;;;;;;5035834;28;20486;-86
2021/08/14 01:04:50;;;;;;;8.25;4.95;;;17.90;76.60;;;;;;5035574;28;20391;-84
2021/08/14 01:07:17;;;;;;;8.23;5.07;;;17.90;76.70;;;;;;5036412;28;20079;-85
2021/08/14 01:09:43;;;;;;;7.50;4.88;;;17.80;76.70;;;;;;5036650;28;20057;-85
2021/08/14 01:12:13;;;;;;;7.25;4.90;;;17.80;76.70;;;;;;5054397;28;20411;-84
2021/08/14 01:14:39;;;;;;;7.97;5.15;;;17.70;77.00;;;;;;5053843;28;20545;-84
2021/08/14 01:17:06;;;;;;;9.23;5.28;;;17.70;77.70;;;;;;5053851;28;20053;-85
2021/08/14 01:19:31;;;;;;;7.95;5.28;;;17.70;77.80;;;;;;5053769;28;20029;-85
2021/08/14 01:21:58;;;;;;;7.20;4.93;;;17.80;77.60;;;;;;5035862;28;20090;-87
2021/08/14 01:24:24;;;;;;;8.95;5.18;;;17.70;77.50;;;;;;5036184;28;20033;-85
2021/08/14 01:26:50;;;;;;;7.28;5.10;;;17.80;77.50;;;;;;5037961;28;20032;-85
2021/08/14 01:29:16;;;;;;;8.23;5.20;;;17.70;77.50;;;;;;5038291;28;20080;-87
2021/08/14 01:31:46;;;;;;;8.07;5.20;;;17.70;77.70;;;;;;5037212;28;20383;-86
2021/08/14 01:34:12;;;;;;;9.75;4.72;;;17.60;77.90;;;;;;5036132;28;20037;-85
2021/08/14 01:36:50;;;;;;;7.53;5.25;;;17.60;77.80;;;;;;5053889;28;20597;-84
2021/08/14 01:39:16;;;;;;;8.45;4.97;;;17.50;78.10;;;;;;5036781;28;20040;-85
2021/08/14 01:41:58;;;;;;;7.45;4.75;;;17.50;78.00;;;;;;5035739;28;20025;-85
2021/08/14 01:44:25;;;;;;;9.18;5.35;;;17.40;80.10;;;;;;5035776;28;20067;-86
2021/08/14 01:46:50;;;;;;;8.00;5.35;;;17.40;78.20;;;;;;5036504;28;20057;-87
2021/08/14 01:49:16;;;;;;;9.18;5.40;;;17.40;78.40;;;;;;5036027;28;20127;-86
2021/08/14 01:51:42;;;;;;;8.57;5.57;;;17.40;78.30;;;;;;5036159;28;20048;-86
2021/08/14 01:54:08;;;;;;;9.23;4.95;;;17.30;78.30;;;;;;5054036;28;20025;-86
2021/08/14 01:56:34;;;;;;;7.47;4.88;;;17.30;78.40;;;;;;5020103;28;20056;-86
2021/08/14 01:59:01;;;;;;;7.10;5.03;;;17.30;78.50;;;;;;5055461;28;20021;-86
2021/08/14 02:01:27;;;;;;;8.40;5.53;;;17.30;79.10;;;;;;5058194;28;20025;-86
2021/08/14 02:03:53;;;;;;;8.20;5.32;;;17.30;79.60;;;;;;5039428;28;20127;-84
2021/08/14 02:06:21;;;;;;;7.70;5.15;;;17.40;79.30;;;;;;5039767;28;20549;-85
2021/08/14 02:08:47;;;;;;;9.43;5.03;;;17.40;79.10;;;;;;5057587;28;20074;-85
2021/08/14 02:11:16;;;;;;;9.68;5.43;;;17.40;79.60;;;;;;5057550;28;20032;-84
2021/08/14 02:13:43;;;;;;;8.38;5.13;;;17.30;79.70;;;;;;5039925;28;20476;-85
2021/08/14 02:16:09;;;;;;;9.68;5.80;;;17.30;79.60;;;;;;5039393;28;20045;-84
2021/08/14 02:18:35;;;;;;;8.38;5.55;;;17.40;80.30;;;;;;5039546;28;20441;-85
2021/08/14 02:21:01;;;;;;;8.35;5.30;;;17.40;80.20;;;;;;5039598;28;20116;-85
2021/08/14 02:23:27;;;;;;;8.02;5.50;;;17.40;80.10;;;;;;5039659;28;20029;-85
2021/08/14 02:25:53;;;;;;;7.93;4.93;;;17.40;79.90;;;;;;5039200;28;20136;-85
2021/08/14 02:28:19;;;;;;;7.35;5.05;;;17.30;79.90;;;;;;5038958;28;20502;-85
2021/08/14 02:30:45;;;;;;;9.25;5.63;;;17.40;80.10;;;;;;5038754;28;20478;-85
2021/08/14 02:33:10;;;;;;;7.95;5.20;;;17.30;80.10;;;;;;5022891;28;20078;-85
2021/08/14 02:35:36;;;;;;;9.05;5.68;;;17.30;80.00;;;;;;5056600;28;20060;-85
2021/08/14 02:38:02;;;;;;;9.73;6.13;;;17.30;80.10;;;;;;5056672;28;20053;-85
2021/08/14 02:40:27;;;;;;;8.88;5.80;;;17.30;80.10;;;;;;5057003;28;20032;-85
2021/08/14 02:42:53;;;;;;;8.25;5.60;;;17.30;80.20;;;;;;5056364;28;20414;-85
2021/08/14 02:45:19;;;;;;;8.40;5.60;;;17.20;80.20;;;;;;5038276;28;20483;-86
2021/08/14 02:47:45;;;;;;;8.57;5.80;;;17.20;81.10;;;;;;5039499;28;20027;-86
2021/08/14 02:50:10;;;;;;;8.52;6.00;;;17.20;80.80;;;;;;5055955;28;20036;-85
2021/08/14 02:52:36;;;;;;;9.18;5.68;;;17.20;81.60;;;;;;5038690;28;20031;-85
2021/08/14 02:55:03;;;;;;;9.73;5.40;;;17.20;80.90;;;;;;5039145;28;20379;-85
2021/08/14 02:57:28;;;;;;;9.30;5.45;;;17.30;80.80;;;;;;5037997;28;20056;-85
2021/08/14 02:59:54;;;;;;;8.45;5.65;;;17.30;80.60;;;;;;5038678;28;20025;-85
2021/08/14 03:02:20;;;;;;;7.53;5.20;;;17.30;80.70;;;;;;5056392;28;20079;-86
2021/08/14 03:04:45;;;;;;;8.95;6.00;;;17.30;80.70;;;;;;5055832;28;20103;-86
2021/08/14 03:07:11;;;;;;;8.30;5.60;;;17.30;80.60;;;;;;5056796;28;20056;-86
2021/08/14 03:09:37;;;;;;;8.93;6.13;;;17.30;80.50;;;;;;5055815;28;20025;-85
2021/08/14 03:12:03;;;;;;;8.50;5.72;;;17.20;80.70;;;;;;5056146;28;20024;-85
2021/08/14 03:14:28;;;;;;;7.40;5.40;;;17.20;81.00;;;;;;5038675;28;20365;-85
2021/08/14 03:16:54;;;;;;;8.55;5.68;;;17.10;81.10;;;;;;5055754;28;20080;-84
2021/08/14 03:19:19;;;;;;;11.50;6.90;;;17.10;81.40;;;;;;5038206;28;20025;-85
2021/08/14 03:21:45;;;;;;;15.23;7.18;;;17.10;81.50;;;;;;5055860;28;20032;-85
2021/08/14 03:24:11;;;;;;;10.95;7.50;;;17.10;81.60;;;;;;5038087;28;20024;-86
2021/08/14 03:26:36;;;;;;;9.13;6.75;;;17.10;81.70;;;;;;5037043;28;20033;-85
2021/08/14 03:29:02;;;;;;;10.75;7.28;;;17.20;81.50;;;;;;5056188;28;20065;-85
2021/08/14 03:31:28;;;;;;;10.02;6.93;;;17.20;81.80;;;;;;5038007;28;20029;-85
2021/08/14 03:33:53;;;;;;;10.45;7.43;;;17.30;81.90;;;;;;5037632;28;20120;-87
2021/08/14 03:36:19;;;;;;;11.48;6.90;;;17.30;82.20;;;;;;5055386;28;20025;-85
2021/08/14 03:38:45;;;;;;;10.32;6.88;;;17.50;81.90;;;;;;5055680;28;20093;-85
2021/08/14 03:41:11;;;;;;;11.23;6.85;;;17.60;81.50;;;;;;5037967;28;20025;-85
2021/08/14 03:43:37;;;;;;;9.88;6.72;;;17.60;81.20;;;;;;5037259;28;20380;-85
2021/08/14 03:46:04;;;;;;;11.68;6.93;;;17.70;81.20;;;;;;5055584;28;20029;-85
2021/08/14 03:48:31;;;;;;;13.45;6.75;;;17.70;81.20;;;;;;5055671;28;20035;-85
2021/08/14 03:50:56;;;;;;;12.45;7.32;;;17.70;81.50;;;;;;5037443;28;20056;-85
2021/08/14 03:53:22;;;;;;;10.57;6.78;;;17.70;81.50;;;;;;5037135;28;20021;-85
2021/08/14 03:55:48;;;;;;;11.55;6.60;;;17.70;81.50;;;;;;5037478;28;20033;-85
2021/08/14 03:58:13;;;;;;;10.27;6.50;;;17.80;81.60;;;;;;5036712;28;20024;-85
2021/08/14 04:00:39;;;;;;;10.00;6.68;;;17.90;81.80;;;;;;5055493;28;20067;-85
2021/08/14 04:03:05;;;;;;;10.45;6.80;;;18.00;81.50;;;;;;5055148;28;20429;-84
2021/08/14 04:05:31;;;;;;;8.50;6.05;;;18.10;81.30;;;;;;5054739;28;20472;-85
2021/08/14 04:07:56;;;;;;;9.65;6.57;;;18.20;81.10;;;;;;5037447;28;20036;-85
2021/08/14 04:10:22;;;;;;;9.23;6.13;;;18.30;80.80;;;;;;5037317;28;20380;-86
2021/08/14 04:12:50;;;;;;;9.75;6.35;;;18.30;80.80;;;;;;5055431;28;20100;-84
2021/08/14 04:15:16;;;;;;;11.23;6.80;;;18.40;80.90;;;;;;5037369;28;20399;-84
2021/08/14 04:17:42;;;;;;;11.13;6.00;;;18.50;80.70;;;;;;5054890;28;20053;-85
2021/08/14 04:20:09;;;;;;;10.15;5.90;;;18.50;80.60;;;;;;5054563;28;20029;-85
2021/08/14 04:22:34;;;;;;;8.48;6.00;;;18.60;80.70;;;;;;5036178;28;20471;-84
2021/08/14 04:25:00;;;;;;;10.38;5.85;;;18.60;80.90;;;;;;5054962;28;20033;-83
2021/08/14 04:27:26;;;;;;;8.07;5.82;;;18.60;80.90;;;;;;5055421;28;20060;-85
2021/08/14 04:29:52;;;;;;;8.40;6.00;;;18.70;81.10;;;;;;5036855;28;20049;-85
2021/08/14 04:32:18;;;;;;;8.05;5.30;;;18.70;81.00;;;;;;5036823;28;20033;-85
2021/08/14 04:34:43;;;;;;;8.27;5.30;;;18.80;80.90;;;;;;5036170;28;20067;-85
2021/08/14 04:37:09;;;;;;;7.35;5.40;;;18.90;80.90;;;;;;5054786;28;20029;-85
2021/08/14 04:39:36;;;;;;;6.45;4.43;;;19.00;80.70;;;;;;5036802;28;20032;-85
2021/08/14 04:42:02;;;;;;;6.70;5.03;;;19.10;80.50;;;;;;5054753;28;20033;-85
2021/08/14 04:44:27;;;;;;;7.40;4.93;;;19.20;80.30;;;;;;5054510;28;20097;-84
2021/08/14 04:46:53;;;;;;;8.73;5.07;;;19.20;79.90;;;;;;5036345;28;20029;-85
2021/08/14 04:49:20;;;;;;;8.48;5.00;;;19.30;79.90;;;;;;5036632;28;20064;-87
2021/08/14 04:51:47;;;;;;;7.50;4.90;;;19.40;79.80;;;;;;5054557;28;20033;-87
2021/08/14 04:54:44;;;;;;;6.50;5.05;;;19.50;79.40;;;;;;5054506;28;20525;-84
2021/08/14 05:08:11;;;;;;;6.93;4.60;;;19.90;78.70;;;;;;5059722;28;20380;-83
2021/08/14 05:14:22;;;;;;;5.82;3.97;;;20.20;77.90;;;;;;5055657;28;20112;-86
2021/08/14 05:20:20;;;;;;;5.65;4.03;;;20.40;77.20;;;;;;5058007;28;20414;-87
2021/08/14 05:22:46;;;;;;;5.75;3.60;;;20.40;76.40;;;;;;5054226;28;20028;-86
2021/08/14 05:25:12;;;;;;;5.15;3.50;;;20.50;76.10;;;;;;5036129;28;20033;-84
2021/08/14 05:27:37;;;;;;;5.78;3.38;;;20.60;75.70;;;;;;5036059;28;20021;-86
2021/08/14 05:30:04;;;;;;;5.95;3.70;;;20.70;75.30;;;;;;5054314;28;20401;-85
2021/08/14 05:32:29;;;;;;;5.22;3.53;;;20.70;75.10;;;;;;5053335;28;20497;-86
2021/08/14 05:34:55;;;;;;;4.18;3.17;;;20.80;75.00;;;;;;5053531;28;20029;-87
2021/08/14 05:37:21;;;;;;;3.95;3.20;;;20.90;74.80;;;;;;5036820;28;20036;-86
2021/08/14 05:39:49;;;;;;;4.25;3.00;;;21.00;74.70;;;;;;5053977;28;20490;-85
2021/08/14 05:42:15;;;;;;;4.07;3.28;;;21.00;74.20;;;;;;5053525;28;20036;-85
2021/08/14 05:44:41;;;;;;;4.65;3.40;;;21.10;74.00;;;;;;5037974;28;20387;-83
2021/08/14 05:47:07;;;;;;;4.20;3.10;;;21.20;73.60;;;;;;5037552;28;20032;-85
2021/08/14 05:49:34;;;;;;;4.57;3.10;;;21.20;73.20;;;;;;5035594;28;20033;-87
2021/08/14 05:52:00;;;;;;;4.32;3.30;;;21.30;73.00;;;;;;5035381;28;20376;-86
2021/08/14 05:54:26;;;;;;;4.30;3.05;;;21.40;72.80;;;;;;5053752;28;20487;-85
2021/08/14 05:56:52;;;;;;;3.80;3.08;;;21.40;72.50;;;;;;5053673;28;20060;-85
2021/08/14 06:00:18;;;;;;;4.60;3.60;;;21.50;72.20;;;;;;5053996;28;20040;-87
2021/08/14 06:06:07;;;;;;;5.15;3.50;;;21.70;70.40;;;;;;5053364;28;20186;-86
2021/08/14 06:08:33;;;;;;;4.28;3.28;;;21.80;71.00;;;;;;5053760;28;20464;-87
2021/08/14 06:10:59;;;;;;;4.78;3.58;;;21.90;70.60;;;;;;5053102;28;20032;-87
2021/08/14 06:13:25;;;;;;;5.53;3.97;;;22.00;70.10;;;;;;5053352;28;20107;-85
2021/08/14 06:15:55;;;;;;;5.43;4.10;;;22.00;69.50;;;;;;5034943;28;20053;-86
2021/08/14 06:18:21;;;;;;;5.60;3.63;;;22.10;69.40;;;;;;5053656;28;20035;-86
2021/08/14 06:20:52;;;;;;;4.53;3.33;;;22.20;69.20;;;;;;5053263;28;20029;-87
2021/08/14 06:23:24;;;;;;;5.07;3.70;;;22.20;68.90;;;;;;5053227;28;20040;-87
2021/08/14 06:25:49;;;;;;;5.18;3.60;;;22.30;68.40;;;;;;5053014;28;20033;-87
2021/08/14 06:28:15;;;;;;;5.95;4.00;;;22.40;68.50;;;;;;5053995;28;20535;-86
2021/08/14 06:30:41;;;;;;;4.97;3.80;;;22.50;68.20;;;;;;5035954;28;20082;-86
2021/08/14 06:33:09;;;;;;;4.85;3.55;;;22.50;67.80;;;;;;5053235;28;20021;-87
2021/08/14 06:35:35;;;;;;;3.90;3.08;;;22.70;67.50;;;;;;5034950;28;20082;-86
2021/08/14 06:38:01;;;;;;;4.38;2.80;;;22.80;67.30;;;;;;5034203;28;20032;-86
2021/08/14 06:40:26;;;;;;;4.13;2.80;;;22.90;67.80;;;;;;5054537;28;20040;-87
2021/08/14 06:42:52;;;;;;;4.60;3.00;;;23.00;67.00;;;;;;5035178;28;20025;-86
2021/08/14 06:45:19;;;;;;;3.50;2.88;;;23.00;66.40;;;;;;5055627;28;20459;-88
2021/08/14 06:47:44;;;;;;;3.42;2.80;;;23.20;66.00;;;;;;5056412;28;20043;-85
2021/08/14 06:50:12;;;;;;;2.80;2.53;;;23.30;65.80;;;;;;5056560;28;20025;-87
2021/08/14 06:52:38;;;;;;;2.53;2.33;;;23.40;65.60;;;;;;5038624;28;20031;-85
2021/08/14 06:55:05;;;;;;;4.10;2.70;;;23.50;65.10;;;;;;5038205;28;20037;-87
2021/08/14 06:57:30;;;;;;;4.38;2.95;;;23.50;64.60;;;;;;5038090;28;20032;-87
2021/08/14 06:59:57;;;;;;;3.42;2.78;;;23.60;64.40;;;;;;5056543;28;20442;-87
2021/08/14 07:02:23;;;;;;;3.95;2.60;;;23.70;64.10;;;;;;5056966;28;20017;-85
2021/08/14 07:04:49;;;;;;;5.00;2.80;;;23.70;63.90;;;;;;5055613;28;20040;-87
2021/08/14 07:07:18;;;;;;;3.25;2.58;;;23.80;63.60;;;;;;5038139;28;20025;-87
2021/08/14 07:09:44;;;;;;;4.70;2.60;;;24.00;63.40;;;;;;5055913;28;20028;-89
2021/08/14 07:12:10;;;;;;;3.10;2.42;;;24.10;63.30;;;;;;5038239;28;20025;-87
2021/08/14 07:14:36;;;;;;;2.88;2.13;;;24.20;63.00;;;;;;5056317;28;20376;-85
2021/08/14 07:17:01;;;;;;;3.15;2.15;;;24.30;62.80;;;;;;5037550;28;20052;-88
2021/08/14 07:19:28;;;;;;;3.33;2.60;;;24.50;62.70;;;;;;5037708;28;20025;-87
2021/08/14 07:21:54;;;;;;;3.20;2.33;;;24.60;62.20;;;;;;5037944;28;20029;-86
2021/08/14 07:24:19;;;;;;;3.80;2.47;;;24.70;61.90;;;;;;5037955;28;20036;-87
2021/08/14 07:26:46;;;;;;;4.13;2.60;;;24.80;61.50;;;;;;5056269;28;20032;-86
2021/08/14 07:29:12;;;;;;;2.95;2.40;;;24.90;61.20;;;;;;5020552;28;20033;-85
2021/08/14 07:31:43;;;;;;;3.72;2.53;;;24.90;60.60;;;;;;5054515;28;20491;-85
2021/08/14 07:34:09;;;;;;;3.72;2.80;;;25.00;60.00;;;;;;5054155;28;20037;-86
2021/08/14 07:36:35;;;;;;;2.40;2.10;;;25.00;60.30;;;;;;5055029;28;20033;-86
2021/08/14 07:39:00;;;;;;;3.20;2.50;;;25.10;60.10;;;;;;5054383;28;20033;-86
2021/08/14 07:41:26;;;;;;;3.05;2.30;;;25.20;59.80;;;;;;5053992;28;20033;-85
2021/08/14 07:43:52;;;;;;;2.75;2.35;;;25.20;59.60;;;;;;5053825;28;20095;-85
2021/08/14 07:46:17;;;;;;;4.50;2.42;;;25.30;59.40;;;;;;5036237;28;20106;-86
2021/08/14 07:48:43;;;;;;;5.78;2.65;;;25.30;59.10;;;;;;5054217;28;20737;-85
2021/08/14 07:51:08;;;;;;;3.25;2.90;;;25.40;58.80;;;;;;5036053;28;20124;-86
2021/08/14 07:53:34;;;;;;;3.72;2.60;;;25.40;58.80;;;;;;5036685;28;20119;-87
2021/08/14 07:56:00;;;;;;;4.20;3.17;;;25.50;58.60;;;;;;5019303;28;20048;-90
2021/08/14 07:58:26;;;;;;;5.50;3.03;;;25.50;58.60;;;;;;5054163;28;20033;-85
2021/08/14 08:00:51;;;;;;;4.28;2.95;;;25.70;58.80;;;;;;5053508;28;20021;-87
2021/08/14 08:03:17;;;;;;;3.65;2.92;;;25.80;58.90;;;;;;5036119;28;20025;-85
2021/08/14 08:05:43;;;;;;;4.40;3.20;;;26.10;59.90;;;;;;5054154;28;20037;-85
2021/08/14 08:08:08;;;;;;;4.70;3.53;;;26.40;60.50;;;;;;5054166;28;20036;-85
2021/08/14 08:10:35;;;;;;;5.00;3.30;;;26.90;60.70;;;;;;5054102;28;20039;-84
2021/08/14 08:13:01;;;;;;;4.40;3.00;;;27.30;60.50;;;;;;5035325;28;20028;-85
2021/08/14 08:15:28;;;;;;;4.10;3.20;;;27.80;59.80;;;;;;5052960;28;20040;-84
2021/08/14 08:17:54;;;;;;;4.30;3.05;;;28.20;59.20;;;;;;5015227;28;20427;-84
2021/08/14 08:20:21;;;;;;;3.50;2.80;;;28.60;58.60;;;;;;5032487;28;20030;-84
2021/08/14 08:22:48;;;;;;;4.30;2.92;;;29.00;57.80;;;;;;5031029;28;20026;-85
2021/08/14 08:25:16;;;;;;;3.80;3.03;;;29.40;57.00;;;;;;5031436;28;20049;-86
2021/08/14 08:27:45;;;;;;;3.83;3.28;;;29.70;55.80;;;;;;5032869;28;20021;-85
2021/08/14 08:30:12;;;;;;;3.78;3.17;;;30.00;55.00;;;;;;5031024;28;20423;-84
2021/08/14 08:32:38;;;;;;;4.05;3.17;;;30.20;53.70;;;;;;5031765;28;20025;-86
2021/08/14 08:35:05;;;;;;;4.45;2.78;;;30.40;53.00;;;;;;5031980;28;20037;-86
2021/08/14 08:37:31;;;;;;;3.20;2.63;;;30.50;52.70;;;;;;5030312;28;20025;-85
2021/08/14 08:39:57;;;;;;;3.33;2.92;;;30.80;52.00;;;;;;5033091;28;20029;-86
2021/08/14 08:42:23;;;;;;;4.40;2.92;;;31.00;51.00;;;;;;5033609;28;20029;-86
2021/08/14 08:44:49;;;;;;;4.03;2.80;;;31.20;50.50;;;;;;5033267;28;20600;-85
2021/08/14 08:47:16;;;;;;;2.85;2.53;;;31.40;50.10;;;;;;5032174;28;20036;-85
2021/08/14 08:49:48;;;;;;;3.83;2.50;;;31.60;49.50;;;;;;5033343;28;20468;-86
2021/08/14 08:52:14;;;;;;;3.50;2.70;;;31.90;47.10;;;;;;5033449;28;20032;-85
2021/08/14 08:54:40;;;;;;;4.07;2.80;;;32.00;48.10;;;;;;5032199;28;20030;-87
2021/08/14 08:57:06;;;;;;;4.03;2.80;;;32.20;47.00;;;;;;5035214;28;20025;-85
2021/08/14 08:59:32;;;;;;;3.35;2.50;;;32.20;46.30;;;;;;5039470;28;20025;-85
2021/08/14 09:01:57;;;;;;;3.25;2.42;;;32.20;46.20;;;;;;5033677;28;20029;-85
2021/08/14 09:04:26;;;;;;;3.00;2.55;;;32.40;46.20;;;;;;5033120;28;20032;-85
2021/08/14 09:06:53;;;;;;;4.05;2.58;;;32.60;45.40;;;;;;5031599;28;20036;-85
2021/08/14 09:09:24;;;;;;;3.28;2.60;;;32.80;45.00;;;;;;5032757;28;20375;-87
2021/08/14 09:11:52;;;;;;;2.88;2.40;;;33.00;42.50;;;;;;5032032;28;20052;-85
2021/08/14 09:14:18;;;;;;;3.38;2.53;;;33.10;44.10;;;;;;5031244;28;20036;-85
2021/08/14 09:16:44;;;;;;;2.55;2.35;;;33.20;43.80;;;;;;5040145;28;20406;-85
2021/08/14 09:19:30;;;;;;;4.10;2.55;;;33.40;43.80;;;;;;5034696;28;20539;-89
2021/08/14 09:22:04;;;;;;;3.63;2.60;;;33.60;40.60;;;;;;5031890;28;20057;-87
2021/08/14 09:24:38;;;;;;;3.13;2.47;;;33.70;43.10;;;;;;5014205;28;20079;-87
2021/08/14 09:27:05;;;;;;;6.68;2.80;;;34.00;41.90;;;;;;5031816;28;20032;-86
2021/08/14 09:29:34;;;;;;;2.90;2.60;;;34.10;42.40;;;;;;5014029;28;20029;-87
2021/08/14 09:32:00;;;;;;;2.92;2.53;;;34.20;41.90;;;;;;5014997;28;20021;-87
2021/08/14 09:34:27;;;;;;;3.60;2.92;;;34.10;41.90;;;;;;5015428;28;20454;-87
2021/08/14 09:37:01;;;;;;;4.43;2.65;;;34.30;41.70;;;;;;5015672;28;20030;-86
2021/08/14 09:39:28;;;;;;;3.95;2.83;;;34.40;39.90;;;;;;5033003;28;20025;-85
2021/08/14 09:42:20;;;;;;;4.53;3.10;;;34.50;40.80;;;;;;5031558;28;20029;-85
2021/08/14 09:45:07;;;;;;;2.90;2.55;;;34.60;37.50;;;;;;5027794;28;20053;-86
2021/08/14 09:47:36;;;;;;;3.30;2.70;;;34.50;40.30;;;;;;5032081;28;20025;-85
2021/08/14 09:50:02;;;;;;;2.67;2.25;;;34.70;40.60;;;;;;5031409;28;20033;-84
2021/08/14 09:52:27;;;;;;;3.13;2.60;;;34.70;39.90;;;;;;5032003;28;20112;-87
2021/08/14 09:54:54;;;;;;;4.78;3.42;;;34.80;39.60;;;;;;5015103;28;20093;-85
2021/08/14 09:57:21;;;;;;;3.45;2.90;;;34.90;39.50;;;;;;5032101;28;20025;-86
2021/08/14 09:59:49;;;;;;;4.65;2.78;;;35.00;39.40;;;;;;5031611;28;20041;-85
2021/08/14 10:02:17;;;;;;;3.10;2.58;;;35.30;39.30;;;;;;5030808;28;20468;-87
2021/08/14 10:04:46;;;;;;;3.10;2.80;;;35.50;38.90;;;;;;5031138;28;20029;-85
2021/08/14 10:07:16;;;;;;;4.18;3.38;;;35.70;38.50;;;;;;5013712;28;20045;-85
2021/08/14 10:09:43;;;;;;;3.67;3.28;;;35.70;38.20;;;;;;5013690;28;20036;-89
2021/08/14 10:12:14;;;;;;;4.22;3.30;;;35.60;37.70;;;;;;5014085;28;20036;-87
2021/08/14 10:14:45;;;;;;;3.50;3.00;;;35.60;37.50;;;;;;5013895;28;20026;-84
2021/08/14 10:17:13;;;;;;;4.18;2.95;;;35.60;37.50;;;;;;5014263;28;20136;-88
2021/08/14 10:19:39;;;;;;;3.55;3.08;;;35.70;37.50;;;;;;5033115;28;20056;-86
2021/08/14 10:22:08;;;;;;;3.80;2.70;;;35.60;37.20;;;;;;5035964;28;20041;-86
2021/08/14 10:24:35;;;;;;;;;;;35.60;37.20;;;;;;5018598;28;20041;-86
2021/08/14 10:27:06;;;;;;;4.00;2.85;;;35.40;35.00;;;;;;5034749;28;19905;-85
2021/08/14 10:30:30;;;;;;;4.68;3.53;;;35.70;37.30;;;;;;5017125;28;20069;-85
2021/08/14 10:32:56;;;;;;;4.50;3.97;;;36.00;34.60;;;;;;4936751;29;20125;-85
2021/08/14 10:35:31;;;;;;;4.32;3.10;;;36.20;37.00;;;;;;4953759;29;20137;-84
2021/08/14 10:37:57;;;;;;;3.63;2.80;;;36.50;36.50;;;;;;5003950;28;20585;-87
2021/08/14 10:40:45;;;;;;;3.92;2.70;;;36.70;36.10;;;;;;5055673;28;20183;-90
2021/08/14 10:43:11;;;;;;;3.58;2.95;;;37.00;35.80;;;;;;5037396;28;20383;-91
2021/08/14 10:45:41;;;;;;;4.68;3.10;;;37.00;35.40;;;;;;5036920;28;20048;-88
2021/08/14 10:48:07;;;;;;;4.32;3.00;;;37.00;35.20;;;;;;5037789;28;20444;-88
2021/08/14 10:50:33;;;;;;;3.00;2.70;;;37.00;35.10;;;;;;5040078;28;20052;-91
2021/08/14 10:53:18;;;;;;;4.65;3.30;;;37.10;35.10;;;;;;5038564;28;20032;-91
2021/08/14 10:55:46;;;;;;;3.58;3.25;;;37.30;32.90;;;;;;5039785;28;20043;-91
2021/08/14 10:58:29;;;;;;;3.00;2.70;;;37.20;34.60;;;;;;5039093;28;20037;-89
2021/08/14 11:01:04;;;;;;;5.55;3.05;;;37.30;32.00;;;;;;5038589;28;20455;-88
2021/08/14 11:03:35;;;;;;;3.20;2.72;;;37.40;33.20;;;;;;5037278;28;20071;-88
2021/08/14 11:06:26;;;;;;;3.45;2.80;;;37.50;33.70;;;;;;5054069;28;20124;-89
2021/08/14 11:09:17;;;;;;;3.30;2.70;;;37.50;32.20;;;;;;5038270;28;20111;-90
2021/08/14 11:11:49;;;;;;;3.30;2.80;;;37.40;32.30;;;;;;5056790;28;20020;-92
2021/08/14 11:14:16;;;;;;;3.13;2.60;;;37.10;33.80;;;;;;5041365;28;20482;-90
2021/08/14 11:16:58;;;;;;;3.28;2.58;;;36.90;34.00;;;;;;5039134;28;20057;-86
2021/08/14 11:19:53;;;;;;;3.17;2.67;;;36.90;32.90;;;;;;5047664;28;20058;-85
2021/08/14 11:22:24;;;;;;;3.63;2.80;;;37.00;32.80;;;;;;5030797;28;20043;-85
2021/08/14 11:24:50;;;;;;;3.05;2.72;;;37.10;33.00;;;;;;5052898;28;20114;-85
2021/08/14 11:27:27;;;;;;;3.38;2.78;;;37.20;33.70;;;;;;5053416;28;20055;-85
2021/08/14 11:29:56;;;;;;;3.08;2.60;;;37.50;33.60;;;;;;5054060;28;20013;-86
2021/08/14 11:32:22;;;;;;;3.47;2.92;;;37.70;33.70;;;;;;5031340;28;20108;-84
2021/08/14 11:34:52;;;;;;;4.57;2.85;;;37.90;33.30;;;;;;5036571;28;20044;-85
2021/08/14 11:37:18;;;;;;;3.70;2.70;;;37.80;32.80;;;;;;5054070;28;20025;-85
2021/08/14 11:39:44;;;;;;;4.13;2.90;;;37.80;33.00;;;;;;5053358;28;20047;-85
2021/08/14 11:42:11;;;;;;;3.65;2.70;;;37.80;32.80;;;;;;5035951;28;20467;-86
2021/08/14 11:44:38;;;;;;;2.95;2.65;;;38.00;32.80;;;;;;5053496;28;20041;-86
2021/08/14 11:47:09;;;;;;;3.92;2.55;;;38.20;32.70;;;;;;5035560;28;20051;-85
2021/08/14 11:49:57;;;;;;;5.25;2.97;;;38.40;32.60;;;;;;5053746;28;20036;-85
2021/08/14 11:52:24;;;;;;;2.85;2.53;;;38.50;30.80;;;;;;5053048;28;20513;-85
2021/08/14 11:54:58;;;;;;;3.78;2.95;;;38.70;32.30;;;;;;5053435;28;20048;-85
2021/08/14 11:57:28;;;;;;;3.95;3.17;;;38.90;31.60;;;;;;5036983;28;20029;-86
2021/08/14 11:59:55;;;;;;;3.42;2.92;;;38.90;31.60;;;;;;5055235;28;20040;-87
2021/08/14 12:02:25;;;;;;;3.42;2.70;;;38.80;31.60;;;;;;5036570;28;20052;-85
2021/08/14 12:04:51;;;;;;;3.30;2.67;;;38.70;31.80;;;;;;5054139;28;20036;-91
2021/08/14 12:07:17;;;;;;;3.60;2.90;;;38.70;31.80;;;;;;5035587;28;20032;-87
2021/08/14 12:09:43;;;;;;;3.60;3.00;;;38.80;31.60;;;;;;5034848;28;20368;-88
2021/08/14 12:12:18;;;;;;;15.10;13.40;;;38.50;31.40;;;;;;5036036;28;20025;-86
2021/08/14 12:14:44;;;;;;;7.40;6.20;;;38.30;31.50;;;;;;5054051;28;20032;-86
2021/08/14 12:17:09;;;;;;;4.53;3.90;;;38.10;31.90;;;;;;5034901;28;20087;-87
2021/08/14 12:19:54;;;;;;;3.90;3.20;;;38.10;31.80;;;;;;5034826;28;20017;-88
2021/08/14 12:22:27;;;;;;;3.28;2.92;;;38.30;31.80;;;;;;5034893;28;20522;-87
2021/08/14 12:24:53;;;;;;;4.82;3.10;;;38.40;31.80;;;;;;5036004;28;20043;-85
2021/08/14 12:27:24;;;;;;;2.83;2.60;;;38.50;31.60;;;;;;5053487;28;20021;-86
2021/08/14 12:29:50;;;;;;;3.63;2.80;;;38.40;31.30;;;;;;5035195;28;20113;-89
2021/08/14 12:32:16;;;;;;;3.33;2.63;;;38.00;31.30;;;;;;5039049;28;20024;-86
2021/08/14 12:34:43;;;;;;;3.03;2.60;;;37.50;31.40;;;;;;5055968;28;20037;-86
2021/08/14 12:37:15;;;;;;;4.00;2.83;;;37.10;32.00;;;;;;5019462;28;20033;-85
2021/08/14 12:39:54;;;;;;;4.68;2.95;;;37.30;32.20;;;;;;5047744;28;20055;-87
2021/08/14 12:42:31;;;;;;;3.33;2.80;;;37.50;32.00;;;;;;5051964;28;20039;-87
2021/08/14 12:44:59;;;;;;;3.72;3.10;;;37.80;32.10;;;;;;5034763;28;20048;-86
2021/08/14 12:47:30;;;;;;;5.15;3.50;;;38.00;31.80;;;;;;5034466;28;20116;-86
2021/08/14 12:50:31;;;;;;;4.03;3.03;;;38.20;31.30;;;;;;5034567;28;20117;-87
2021/08/14 12:53:10;;;;;;;4.32;2.97;;;38.60;30.40;;;;;;5053413;28;20029;-85
2021/08/14 12:55:41;;;;;;;2.83;2.53;;;38.90;30.30;;;;;;5053488;28;20021;-89
2021/08/14 12:58:08;;;;;;;3.78;2.60;;;38.90;30.80;;;;;;5035447;28;20037;-87
2021/08/14 13:00:35;;;;;;;3.47;2.97;;;39.00;30.70;;;;;;5035898;28;20028;-85
2021/08/14 13:03:04;;;;;;;4.53;3.05;;;39.20;30.60;;;;;;5053149;28;20021;-86
2021/08/14 13:05:30;;;;;;;3.63;2.80;;;39.30;30.60;;;;;;5053087;28;20040;-85
2021/08/14 13:07:56;;;;;;;3.75;2.75;;;39.30;30.40;;;;;;5034911;28;20018;-87
2021/08/14 13:10:23;;;;;;;2.72;2.50;;;39.30;30.20;;;;;;5034276;28;20090;-86
2021/08/14 13:12:55;;;;;;;3.42;3.10;;;39.30;30.20;;;;;;5034838;28;20021;-85